Terminal Aerodrome Forecast
Issued by NWS Charleston, WV

Home | Current Version | Previous Version | Text Only | Print | Product List | Glossary On
Versions: 1 2 3 4 5 6 7 8 9 10 11 12 13 14 15 16 17 18 19
000
FTUS41 KRLX 191700
TAFPKB
TAF
KPKB 191738Z 1918/2018 04011G18KT P6SM SCT250
     FM192200 03008KT P6SM SKC
     FM200200 00000KT P6SM SKC
     FM201700 12004KT P6SM SKC=

USA.gov is the U.S. government's official web portal to all federal, state and local government web resources and services.